sensor_id;sensor_type;location;lat;lon;timestamp;pressure;altitude;pressure_sealevel;temperature;humidity
23176;BME280;19910;42.652;23.332;2022-07-25T00:01:39;94662.97;;;22.78;70.30
23176;BME280;19910;42.652;23.332;2022-07-25T00:04:06;94662.16;;;22.74;71.91
23176;BME280;19910;42.652;23.332;2022-07-25T00:06:33;94659.72;;;22.90;71.62
23176;BME280;19910;42.652;23.332;2022-07-25T00:09:02;94658.28;;;22.64;72.78
23176;BME280;19910;42.652;23.332;2022-07-25T00:11:29;94666.25;;;22.51;73.06
23176;BME280;19910;42.652;23.332;2022-07-25T00:13:56;94660.75;;;22.44;73.54
23176;BME280;19910;42.652;23.332;2022-07-25T00:16:23;94669.44;;;22.43;74.33
23176;BME280;19910;42.652;23.332;2022-07-25T00:18:50;94665.47;;;22.44;74.43
23176;BME280;19910;42.652;23.332;2022-07-25T00:21:17;94667.47;;;22.43;74.57
23176;BME280;19910;42.652;23.332;2022-07-25T00:23:43;94661.47;;;22.55;73.55
23176;BME280;19910;42.652;23.332;2022-07-25T00:26:11;94667.31;;;22.72;73.75
23176;BME280;19910;42.652;23.332;2022-07-25T00:28:38;94651.19;;;22.59;73.16
23176;BME280;19910;42.652;23.332;2022-07-25T00:31:05;94648.88;;;22.54;73.33
23176;BME280;19910;42.652;23.332;2022-07-25T00:33:32;94651.22;;;22.56;73.54
23176;BME280;19910;42.652;23.332;2022-07-25T00:35:59;94644.03;;;22.69;73.26
23176;BME280;19910;42.652;23.332;2022-07-25T00:38:25;94643.19;;;22.83;72.60
23176;BME280;19910;42.652;23.332;2022-07-25T00:40:53;94629.72;;;22.92;72.81
23176;BME280;19910;42.652;23.332;2022-07-25T00:43:21;94634.00;;;22.96;73.09
23176;BME280;19910;42.652;23.332;2022-07-25T00:45:49;94638.81;;;22.89;72.88
23176;BME280;19910;42.652;23.332;2022-07-25T00:48:15;94624.94;;;22.96;72.99
23176;BME280;19910;42.652;23.332;2022-07-25T00:50:42;94636.75;;;22.96;73.78
23176;BME280;19910;42.652;23.332;2022-07-25T00:53:10;94623.56;;;22.63;74.21
23176;BME280;19910;42.652;23.332;2022-07-25T00:55:37;94642.13;;;22.62;73.90
23176;BME280;19910;42.652;23.332;2022-07-25T00:58:03;94645.66;;;22.63;73.74
23176;BME280;19910;42.652;23.332;2022-07-25T01:00:32;94642.50;;;22.64;73.54
23176;BME280;19910;42.652;23.332;2022-07-25T01:02:59;94644.06;;;22.65;72.91
23176;BME280;19910;42.652;23.332;2022-07-25T01:05:26;94650.72;;;22.75;72.39
23176;BME280;19910;42.652;23.332;2022-07-25T01:07:53;94642.44;;;22.72;72.52
23176;BME280;19910;42.652;23.332;2022-07-25T01:10:20;94643.94;;;22.87;71.42
23176;BME280;19910;42.652;23.332;2022-07-25T01:12:48;94640.38;;;22.90;70.56
23176;BME280;19910;42.652;23.332;2022-07-25T01:15:16;94630.78;;;23.05;71.13
23176;BME280;19910;42.652;23.332;2022-07-25T01:17:45;94635.84;;;23.10;70.83
23176;BME280;19910;42.652;23.332;2022-07-25T01:20:14;94634.19;;;23.23;71.94
23176;BME280;19910;42.652;23.332;2022-07-25T01:22:41;94637.44;;;23.11;72.42
23176;BME280;19910;42.652;23.332;2022-07-25T01:25:09;94645.41;;;23.06;73.21
23176;BME280;19910;42.652;23.332;2022-07-25T01:27:35;94640.28;;;23.04;72.12
23176;BME280;19910;42.652;23.332;2022-07-25T01:30:04;94632.75;;;23.08;72.08
23176;BME280;19910;42.652;23.332;2022-07-25T01:32:32;94632.34;;;23.10;71.89
23176;BME280;19910;42.652;23.332;2022-07-25T01:34:59;94631.13;;;23.11;72.05
23176;BME280;19910;42.652;23.332;2022-07-25T01:37:27;94632.66;;;23.19;72.34
23176;BME280;19910;42.652;23.332;2022-07-25T01:39:54;94635.06;;;23.13;72.68
23176;BME280;19910;42.652;23.332;2022-07-25T01:42:21;94629.22;;;23.04;71.60
23176;BME280;19910;42.652;23.332;2022-07-25T01:44:48;94634.34;;;23.02;72.67
23176;BME280;19910;42.652;23.332;2022-07-25T01:47:15;94634.31;;;23.09;71.83
23176;BME280;19910;42.652;23.332;2022-07-25T01:49:43;94643.03;;;23.04;72.43
23176;BME280;19910;42.652;23.332;2022-07-25T01:52:10;94639.84;;;23.09;71.84
23176;BME280;19910;42.652;23.332;2022-07-25T01:54:38;94637.53;;;22.97;72.38
23176;BME280;19910;42.652;23.332;2022-07-25T01:57:05;94634.44;;;22.95;72.40
23176;BME280;19910;42.652;23.332;2022-07-25T01:59:35;94643.91;;;22.94;72.07
23176;BME280;19910;42.652;23.332;2022-07-25T02:02:02;94645.09;;;22.93;71.38
23176;BME280;19910;42.652;23.332;2022-07-25T02:04:29;94642.81;;;22.81;71.54
23176;BME280;19910;42.652;23.332;2022-07-25T02:06:56;94644.00;;;22.73;70.79
23176;BME280;19910;42.652;23.332;2022-07-25T02:09:23;94653.41;;;22.89;71.37
23176;BME280;19910;42.652;23.332;2022-07-25T02:11:51;94638.38;;;22.94;71.68
23176;BME280;19910;42.652;23.332;2022-07-25T02:14:18;94644.72;;;22.91;72.23
23176;BME280;19910;42.652;23.332;2022-07-25T02:16:45;94647.19;;;22.71;73.24
23176;BME280;19910;42.652;23.332;2022-07-25T02:19:12;94647.25;;;22.60;74.84
23176;BME280;19910;42.652;23.332;2022-07-25T02:21:39;94644.94;;;22.52;74.64
23176;BME280;19910;42.652;23.332;2022-07-25T02:24:06;94645.75;;;22.45;75.05
23176;BME280;19910;42.652;23.332;2022-07-25T02:26:33;94646.63;;;22.31;75.98
23176;BME280;19910;42.652;23.332;2022-07-25T02:29:01;94643.50;;;22.26;74.11
23176;BME280;19910;42.652;23.332;2022-07-25T02:31:28;94649.84;;;22.19;74.87
23176;BME280;19910;42.652;23.332;2022-07-25T02:33:55;94645.50;;;22.18;74.53
23176;BME280;19910;42.652;23.332;2022-07-25T02:36:23;94652.97;;;22.25;74.78
23176;BME280;19910;42.652;23.332;2022-07-25T02:38:50;94646.63;;;22.28;75.26
23176;BME280;19910;42.652;23.332;2022-07-25T02:41:17;94647.41;;;22.32;75.70
23176;BME280;19910;42.652;23.332;2022-07-25T02:43:44;94644.25;;;22.30;74.81
23176;BME280;19910;42.652;23.332;2022-07-25T02:46:12;94634.84;;;22.20;75.89
23176;BME280;19910;42.652;23.332;2022-07-25T02:48:39;94635.25;;;22.19;75.87
23176;BME280;19910;42.652;23.332;2022-07-25T02:51:06;94632.94;;;22.07;76.50
23176;BME280;19910;42.652;23.332;2022-07-25T02:53:35;94642.81;;;21.93;76.45
23176;BME280;19910;42.652;23.332;2022-07-25T02:56:03;94643.66;;;21.76;77.16
23176;BME280;19910;42.652;23.332;2022-07-25T02:58:29;94646.06;;;21.67;76.98
23176;BME280;19910;42.652;23.332;2022-07-25T03:00:56;94648.03;;;21.70;75.20
23176;BME280;19910;42.652;23.332;2022-07-25T03:03:25;94640.50;;;21.74;75.53
23176;BME280;19910;42.652;23.332;2022-07-25T03:05:51;94644.09;;;21.71;75.87
23176;BME280;19910;42.652;23.332;2022-07-25T03:08:18;94643.69;;;21.62;76.71
23176;BME280;19910;42.652;23.332;2022-07-25T03:10:45;94643.72;;;21.48;76.99
23176;BME280;19910;42.652;23.332;2022-07-25T03:13:12;94645.69;;;21.58;76.72
23176;BME280;19910;42.652;23.332;2022-07-25T03:15:38;94650.81;;;21.56;76.41
23176;BME280;19910;42.652;23.332;2022-07-25T03:18:05;94642.16;;;21.57;75.30
23176;BME280;19910;42.652;23.332;2022-07-25T03:20:34;94642.94;;;21.47;74.39
23176;BME280;19910;42.652;23.332;2022-07-25T03:23:00;94650.84;;;21.42;74.65
23176;BME280;19910;42.652;23.332;2022-07-25T03:25:27;94646.13;;;21.42;74.12
23176;BME280;19910;42.652;23.332;2022-07-25T03:27:54;94650.81;;;21.49;73.28
23176;BME280;19910;42.652;23.332;2022-07-25T03:30:21;94647.69;;;21.43;73.00
23176;BME280;19910;42.652;23.332;2022-07-25T03:32:48;94655.53;;;21.52;71.92
23176;BME280;19910;42.652;23.332;2022-07-25T03:35:15;94651.56;;;21.60;71.17
23176;BME280;19910;42.652;23.332;2022-07-25T03:37:43;94657.09;;;21.60;70.61
23176;BME280;19910;42.652;23.332;2022-07-25T03:40:11;94649.22;;;21.66;70.06
23176;BME280;19910;42.652;23.332;2022-07-25T03:42:38;94650.00;;;21.70;69.33
23176;BME280;19910;42.652;23.332;2022-07-25T03:45:06;94648.38;;;21.79;68.55
23176;BME280;19910;42.652;23.332;2022-07-25T03:47:33;94650.75;;;21.84;68.67
23176;BME280;19910;42.652;23.332;2022-07-25T03:50:00;94647.53;;;21.96;68.11
23176;BME280;19910;42.652;23.332;2022-07-25T03:52:27;94649.91;;;22.02;67.34
23176;BME280;19910;42.652;23.332;2022-07-25T03:54:55;94648.25;;;22.25;67.22
23176;BME280;19910;42.652;23.332;2022-07-25T03:57:22;94659.00;;;22.72;65.00
23176;BME280;19910;42.652;23.332;2022-07-25T03:59:49;94649.56;;;23.24;63.37
23176;BME280;19910;42.652;23.332;2022-07-25T04:02:16;94650.56;;;23.89;61.67
23176;BME280;19910;42.652;23.332;2022-07-25T04:04:42;94666.84;;;24.48;59.92
23176;BME280;19910;42.652;23.332;2022-07-25T04:07:10;94662.22;;;24.41;59.45
23176;BME280;19910;42.652;23.332;2022-07-25T04:09:36;94653.94;;;24.68;57.97
23176;BME280;19910;42.652;23.332;2022-07-25T04:12:05;94657.44;;;25.49;55.99
23176;BME280;19910;42.652;23.332;2022-07-25T04:14:32;94643.03;;;26.41;53.25
23176;BME280;19910;42.652;23.332;2022-07-25T04:16:59;94636.88;;;27.38;51.30
23176;BME280;19910;42.652;23.332;2022-07-25T04:19:26;94637.91;;;28.34;48.50
23176;BME280;19910;42.652;23.332;2022-07-25T04:21:52;94634.66;;;28.77;47.20
23176;BME280;19910;42.652;23.332;2022-07-25T04:24:19;94624.53;;;29.21;46.46
23176;BME280;19910;42.652;23.332;2022-07-25T04:26:46;94637.56;;;28.86;45.15
23176;BME280;19910;42.652;23.332;2022-07-25T04:29:14;94620.59;;;29.91;44.23
23176;BME280;19910;42.652;23.332;2022-07-25T04:31:41;94625.69;;;30.71;42.73
23176;BME280;19910;42.652;23.332;2022-07-25T04:34:08;94629.06;;;30.22;41.65
23176;BME280;19910;42.652;23.332;2022-07-25T04:36:35;94625.31;;;30.16;42.82
23176;BME280;19910;42.652;23.332;2022-07-25T04:39:08;94621.25;;;30.39;41.26
23176;BME280;19910;42.652;23.332;2022-07-25T04:41:34;94629.22;;;30.93;41.50
23176;BME280;19910;42.652;23.332;2022-07-25T04:44:01;94622.84;;;31.33;40.46
23176;BME280;19910;42.652;23.332;2022-07-25T04:46:29;94628.78;;;32.11;38.84
23176;BME280;19910;42.652;23.332;2022-07-25T04:48:56;94629.53;;;31.94;39.08
23176;BME280;19910;42.652;23.332;2022-07-25T04:51:23;94631.63;;;31.62;39.15
23176;BME280;19910;42.652;23.332;2022-07-25T04:53:50;94623.19;;;31.44;39.48
23176;BME280;19910;42.652;23.332;2022-07-25T04:56:17;94639.69;;;30.27;41.00
23176;BME280;19910;42.652;23.332;2022-07-25T04:58:43;94627.94;;;30.85;40.41
23176;BME280;19910;42.652;23.332;2022-07-25T05:01:10;94626.00;;;31.44;39.06
23176;BME280;19910;42.652;23.332;2022-07-25T05:03:38;94627.41;;;31.08;39.40
23176;BME280;19910;42.652;23.332;2022-07-25T05:06:06;94637.22;;;30.73;40.23
23176;BME280;19910;42.652;23.332;2022-07-25T05:08:32;94631.28;;;30.49;40.46
23176;BME280;19910;42.652;23.332;2022-07-25T05:10:59;94634.38;;;31.04;39.56
23176;BME280;19910;42.652;23.332;2022-07-25T05:13:26;94637.78;;;31.30;39.26
23176;BME280;19910;42.652;23.332;2022-07-25T05:15:53;94638.13;;;31.01;39.43
23176;BME280;19910;42.652;23.332;2022-07-25T05:18:20;94634.94;;;30.59;40.05
23176;BME280;19910;42.652;23.332;2022-07-25T05:20:52;94643.91;;;30.32;40.36
23176;BME280;19910;42.652;23.332;2022-07-25T05:23:19;94639.00;;;30.89;39.99
23176;BME280;19910;42.652;23.332;2022-07-25T05:25:46;94641.69;;;31.01;39.67
23176;BME280;19910;42.652;23.332;2022-07-25T05:28:13;94645.50;;;31.57;39.50
23176;BME280;19910;42.652;23.332;2022-07-25T05:30:40;94646.22;;;31.48;39.27
23176;BME280;19910;42.652;23.332;2022-07-25T05:33:07;94640.97;;;33.05;37.13
23176;BME280;19910;42.652;23.332;2022-07-25T05:35:34;94646.94;;;31.21;38.69
23176;BME280;19910;42.652;23.332;2022-07-25T05:38:02;94649.66;;;29.81;41.63
23176;BME280;19910;42.652;23.332;2022-07-25T05:40:29;94647.25;;;30.49;40.84
23176;BME280;19910;42.652;23.332;2022-07-25T05:42:55;94640.09;;;31.99;37.64
23176;BME280;19910;42.652;23.332;2022-07-25T05:45:22;94644.47;;;32.55;37.56
23176;BME280;19910;42.652;23.332;2022-07-25T05:47:49;94642.00;;;32.02;37.73
23176;BME280;19910;42.652;23.332;2022-07-25T05:50:16;94641.88;;;31.07;39.33
23176;BME280;19910;42.652;23.332;2022-07-25T05:52:42;94634.50;;;31.99;38.82
23176;BME280;19910;42.652;23.332;2022-07-25T05:55:11;94634.34;;;30.95;39.73
23176;BME280;19910;42.652;23.332;2022-07-25T05:57:37;94630.34;;;31.36;39.68
23176;BME280;19910;42.652;23.332;2022-07-25T06:00:05;94632.84;;;30.72;40.46
23176;BME280;19910;42.652;23.332;2022-07-25T06:02:32;94623.31;;;31.31;39.07
23176;BME280;19910;42.652;23.332;2022-07-25T06:04:59;94626.91;;;30.48;40.85
23176;BME280;19910;42.652;23.332;2022-07-25T06:07:27;94631.59;;;31.44;39.39
23176;BME280;19910;42.652;23.332;2022-07-25T06:09:56;94627.91;;;31.56;38.36
23176;BME280;19910;42.652;23.332;2022-07-25T06:12:24;94624.25;;;32.05;38.14
23176;BME280;19910;42.652;23.332;2022-07-25T06:14:52;94616.63;;;33.02;36.98
23176;BME280;19910;42.652;23.332;2022-07-25T06:17:18;94628.44;;;32.64;37.13
23176;BME280;19910;42.652;23.332;2022-07-25T06:19:45;94612.69;;;33.51;36.39
23176;BME280;19910;42.652;23.332;2022-07-25T06:22:12;94625.03;;;32.42;37.12
23176;BME280;19910;42.652;23.332;2022-07-25T06:24:39;94625.31;;;31.31;39.03
23176;BME280;19910;42.652;23.332;2022-07-25T06:27:06;94631.72;;;31.81;38.48
23176;BME280;19910;42.652;23.332;2022-07-25T06:29:34;94634.47;;;31.71;38.09
23176;BME280;19910;42.652;23.332;2022-07-25T06:32:02;94627.69;;;32.36;37.77
23176;BME280;19910;42.652;23.332;2022-07-25T06:34:29;94623.00;;;31.97;37.60
23176;BME280;19910;42.652;23.332;2022-07-25T06:36:56;94630.25;;;31.18;39.17
23176;BME280;19910;42.652;23.332;2022-07-25T06:39:23;94621.03;;;30.46;40.52
23176;BME280;19910;42.652;23.332;2022-07-25T06:41:50;94634.78;;;31.15;39.95
23176;BME280;19910;42.652;23.332;2022-07-25T06:44:17;94628.75;;;32.75;36.89
23176;BME280;19910;42.652;23.332;2022-07-25T06:46:45;94630.94;;;32.44;36.73
23176;BME280;19910;42.652;23.332;2022-07-25T06:49:12;94623.63;;;32.37;37.26
23176;BME280;19910;42.652;23.332;2022-07-25T06:51:39;94616.19;;;33.37;35.05
23176;BME280;19910;42.652;23.332;2022-07-25T06:54:05;94627.03;;;32.05;38.12
23176;BME280;19910;42.652;23.332;2022-07-25T06:56:32;94601.34;;;33.03;36.62
23176;BME280;19910;42.652;23.332;2022-07-25T06:58:59;94612.06;;;32.63;36.52
23176;BME280;19910;42.652;23.332;2022-07-25T07:01:26;94606.91;;;34.02;34.77
23176;BME280;19910;42.652;23.332;2022-07-25T07:03:54;94615.94;;;32.74;36.54
23176;BME280;19910;42.652;23.332;2022-07-25T07:06:21;94607.13;;;33.89;34.93
23176;BME280;19910;42.652;23.332;2022-07-25T07:08:48;94611.06;;;34.75;34.14
23176;BME280;19910;42.652;23.332;2022-07-25T07:11:15;94604.00;;;35.58;32.72
23176;BME280;19910;42.652;23.332;2022-07-25T07:13:42;94599.91;;;36.41;30.65
23176;BME280;19910;42.652;23.332;2022-07-25T07:16:09;94600.59;;;35.89;31.82
23176;BME280;19910;42.652;23.332;2022-07-25T07:18:37;94595.47;;;35.73;31.89
23176;BME280;19910;42.652;23.332;2022-07-25T07:21:05;94605.22;;;34.34;33.96
23176;BME280;19910;42.652;23.332;2022-07-25T07:23:32;94604.56;;;34.39;33.45
23176;BME280;19910;42.652;23.332;2022-07-25T07:25:59;94605.94;;;33.34;35.40
23176;BME280;19910;42.652;23.332;2022-07-25T07:28:26;94614.56;;;32.42;35.74
23176;BME280;19910;42.652;23.332;2022-07-25T07:30:53;94591.41;;;33.59;33.76
23176;BME280;19910;42.652;23.332;2022-07-25T07:33:19;94609.50;;;34.06;32.94
23176;BME280;19910;42.652;23.332;2022-07-25T07:35:46;94598.22;;;33.67;33.85
23176;BME280;19910;42.652;23.332;2022-07-25T07:38:14;94602.59;;;33.92;33.20
23176;BME280;19910;42.652;23.332;2022-07-25T07:40:42;94604.84;;;33.55;33.51
23176;BME280;19910;42.652;23.332;2022-07-25T07:43:09;94604.56;;;33.20;34.44
23176;BME280;19910;42.652;23.332;2022-07-25T07:45:36;94604.78;;;32.10;36.87
23176;BME280;19910;42.652;23.332;2022-07-25T07:48:04;94606.34;;;32.11;35.86
23176;BME280;19910;42.652;23.332;2022-07-25T07:50:31;94600.16;;;33.61;33.94
23176;BME280;19910;42.652;23.332;2022-07-25T07:52:58;94611.16;;;31.93;35.65
23176;BME280;19910;42.652;23.332;2022-07-25T07:55:26;94605.84;;;32.40;34.55
23176;BME280;19910;42.652;23.332;2022-07-25T07:58:15;94594.75;;;33.72;33.02
23176;BME280;19910;42.652;23.332;2022-07-25T08:00:42;94593.91;;;34.05;32.68
23176;BME280;19910;42.652;23.332;2022-07-25T08:03:09;94610.81;;;32.55;34.25
23176;BME280;19910;42.652;23.332;2022-07-25T08:05:39;94606.94;;;32.43;34.58
23176;BME280;19910;42.652;23.332;2022-07-25T08:08:07;94612.41;;;32.46;34.87
23176;BME280;19910;42.652;23.332;2022-07-25T08:10:38;94601.03;;;31.68;35.82
23176;BME280;19910;42.652;23.332;2022-07-25T08:13:16;94598.25;;;32.23;35.23
23176;BME280;19910;42.652;23.332;2022-07-25T08:15:44;94598.03;;;32.63;34.65
23176;BME280;19910;42.652;23.332;2022-07-25T08:18:12;94601.50;;;32.48;35.79
23176;BME280;19910;42.652;23.332;2022-07-25T08:20:39;94599.25;;;32.71;35.29
23176;BME280;19910;42.652;23.332;2022-07-25T08:23:07;94595.47;;;32.23;35.16
23176;BME280;19910;42.652;23.332;2022-07-25T08:25:37;94594.03;;;31.82;33.90
23176;BME280;19910;42.652;23.332;2022-07-25T08:28:05;94603.41;;;32.24;34.53
23176;BME280;19910;42.652;23.332;2022-07-25T08:30:36;94596.13;;;31.41;34.96
23176;BME280;19910;42.652;23.332;2022-07-25T08:33:05;94609.44;;;31.77;34.82
23176;BME280;19910;42.652;23.332;2022-07-25T08:35:34;94588.97;;;31.49;35.10
23176;BME280;19910;42.652;23.332;2022-07-25T08:38:02;94600.50;;;31.60;35.28
23176;BME280;19910;42.652;23.332;2022-07-25T08:40:30;94596.97;;;31.11;35.88
23176;BME280;19910;42.652;23.332;2022-07-25T08:42:59;94603.56;;;30.64;37.91
23176;BME280;19910;42.652;23.332;2022-07-25T08:45:27;94608.53;;;30.16;37.82
23176;BME280;19910;42.652;23.332;2022-07-25T08:47:54;94609.69;;;30.71;37.09
23176;BME280;19910;42.652;23.332;2022-07-25T08:50:24;94590.91;;;30.81;36.96
23176;BME280;19910;42.652;23.332;2022-07-25T08:52:51;94593.59;;;31.25;36.37
23176;BME280;19910;42.652;23.332;2022-07-25T08:55:20;94587.19;;;32.28;35.15
23176;BME280;19910;42.652;23.332;2022-07-25T08:57:48;94587.19;;;32.10;35.50
23176;BME280;19910;42.652;23.332;2022-07-25T09:00:18;94590.00;;;30.84;37.40
23176;BME280;19910;42.652;23.332;2022-07-25T09:02:51;94585.88;;;30.67;37.28
23176;BME280;19910;42.652;23.332;2022-07-25T09:05:19;94593.72;;;30.28;37.68
23176;BME280;19910;42.652;23.332;2022-07-25T09:07:46;94599.22;;;30.63;37.61
23176;BME280;19910;42.652;23.332;2022-07-25T09:10:14;94596.84;;;30.83;36.99
23176;BME280;19910;42.652;23.332;2022-07-25T09:12:49;94587.09;;;30.13;38.23
23176;BME280;19910;42.652;23.332;2022-07-25T09:15:25;94580.94;;;30.71;37.21
23176;BME280;19910;42.652;23.332;2022-07-25T09:17:52;94579.66;;;31.03;37.77
23176;BME280;19910;42.652;23.332;2022-07-25T09:20:19;94574.78;;;30.54;37.65
23176;BME280;19910;42.652;23.332;2022-07-25T09:22:47;94576.81;;;30.10;38.33
23176;BME280;19910;42.652;23.332;2022-07-25T09:25:21;94566.25;;;30.36;37.57
23176;BME280;19910;42.652;23.332;2022-07-25T09:27:48;94569.91;;;30.46;37.87
23176;BME280;19910;42.652;23.332;2022-07-25T09:30:15;94570.16;;;30.38;37.66
23176;BME280;19910;42.652;23.332;2022-07-25T09:32:44;94576.03;;;30.31;37.45
23176;BME280;19910;42.652;23.332;2022-07-25T09:35:11;94569.63;;;30.74;37.79
23176;BME280;19910;42.652;23.332;2022-07-25T09:37:38;94563.59;;;31.25;36.89
23176;BME280;19910;42.652;23.332;2022-07-25T09:40:12;94568.81;;;32.09;34.51
23176;BME280;19910;42.652;23.332;2022-07-25T09:42:39;94554.69;;;32.55;33.84
23176;BME280;19910;42.652;23.332;2022-07-25T09:45:09;94556.00;;;32.26;34.51
23176;BME280;19910;42.652;23.332;2022-07-25T09:47:48;94564.38;;;31.26;36.17
23176;BME280;19910;42.652;23.332;2022-07-25T09:50:18;94564.59;;;31.00;36.68
23176;BME280;19910;42.652;23.332;2022-07-25T09:52:46;94563.91;;;30.34;36.33
23176;BME280;19910;42.652;23.332;2022-07-25T09:55:13;94562.47;;;31.23;34.58
23176;BME280;19910;42.652;23.332;2022-07-25T09:57:41;94549.19;;;32.09;33.72
23176;BME280;19910;42.652;23.332;2022-07-25T10:00:10;94551.97;;;32.09;33.93
23176;BME280;19910;42.652;23.332;2022-07-25T10:02:42;94552.28;;;32.38;34.15
23176;BME280;19910;42.652;23.332;2022-07-25T10:05:14;94559.47;;;31.08;36.04
23176;BME280;19910;42.652;23.332;2022-07-25T10:07:46;94559.25;;;30.10;37.51
23176;BME280;19910;42.652;23.332;2022-07-25T10:10:21;94564.16;;;29.62;37.78
23176;BME280;19910;42.652;23.332;2022-07-25T10:13:03;94557.38;;;29.50;38.62
23176;BME280;19910;42.652;23.332;2022-07-25T10:15:45;94552.91;;;29.53;38.56
23176;BME280;19910;42.652;23.332;2022-07-25T10:18:13;94546.53;;;30.30;36.59
23176;BME280;19910;42.652;23.332;2022-07-25T10:20:41;94545.16;;;31.06;34.67
23176;BME280;19910;42.652;23.332;2022-07-25T10:23:21;94542.94;;;31.87;34.38
23176;BME280;19910;42.652;23.332;2022-07-25T10:26:06;94542.00;;;31.62;34.89
23176;BME280;19910;42.652;23.332;2022-07-25T10:28:42;94528.28;;;32.37;33.65
23176;BME280;19910;42.652;23.332;2022-07-25T10:31:17;94531.13;;;31.73;34.18
23176;BME280;19910;42.652;23.332;2022-07-25T10:33:47;94539.47;;;30.48;35.78
23176;BME280;19910;42.652;23.332;2022-07-25T10:36:15;94543.91;;;30.58;36.49
23176;BME280;19910;42.652;23.332;2022-07-25T10:38:44;94520.19;;;31.48;34.64
23176;BME280;19910;42.652;23.332;2022-07-25T10:41:14;94524.94;;;31.69;33.14
23176;BME280;19910;42.652;23.332;2022-07-25T10:43:44;94515.06;;;32.01;32.78
23176;BME280;19910;42.652;23.332;2022-07-25T10:46:12;94522.38;;;32.26;32.17
23176;BME280;19910;42.652;23.332;2022-07-25T10:48:40;94525.66;;;32.25;32.70
23176;BME280;19910;42.652;23.332;2022-07-25T10:51:08;94531.72;;;32.32;33.36
23176;BME280;19910;42.652;23.332;2022-07-25T10:53:36;94514.72;;;32.87;33.56
23176;BME280;19910;42.652;23.332;2022-07-25T10:56:07;94503.25;;;33.24;32.53
23176;BME280;19910;42.652;23.332;2022-07-25T10:58:46;94511.84;;;32.96;32.68
23176;BME280;19910;42.652;23.332;2022-07-25T11:01:18;94505.13;;;33.03;30.99
23176;BME280;19910;42.652;23.332;2022-07-25T11:03:45;94501.94;;;33.10;31.13
23176;BME280;19910;42.652;23.332;2022-07-25T11:06:13;94498.28;;;32.62;32.13
23176;BME280;19910;42.652;23.332;2022-07-25T11:08:40;94503.34;;;32.30;32.79
23176;BME280;19910;42.652;23.332;2022-07-25T11:11:10;94507.91;;;32.09;32.82
23176;BME280;19910;42.652;23.332;2022-07-25T11:13:38;94507.72;;;31.31;34.42
23176;BME280;19910;42.652;23.332;2022-07-25T11:16:05;94501.53;;;31.27;33.83
23176;BME280;19910;42.652;23.332;2022-07-25T11:18:34;94502.44;;;31.24;35.23
23176;BME280;19910;42.652;23.332;2022-07-25T11:21:03;94499.94;;;31.17;31.83
23176;BME280;19910;42.652;23.332;2022-07-25T11:23:31;94494.41;;;31.71;30.69
23176;BME280;19910;42.652;23.332;2022-07-25T11:26:06;94486.78;;;32.51;30.15
23176;BME280;19910;42.652;23.332;2022-07-25T11:28:42;94478.28;;;33.35;28.76
23176;BME280;19910;42.652;23.332;2022-07-25T11:31:10;94473.88;;;34.11;29.13
23176;BME280;19910;42.652;23.332;2022-07-25T11:33:41;94477.06;;;32.61;30.19
23176;BME280;19910;42.652;23.332;2022-07-25T11:36:09;94483.03;;;31.84;32.68
23176;BME280;19910;42.652;23.332;2022-07-25T11:38:36;94485.22;;;30.76;33.33
23176;BME280;19910;42.652;23.332;2022-07-25T11:41:03;94478.03;;;30.66;33.63
23176;BME280;19910;42.652;23.332;2022-07-25T11:43:30;94484.09;;;31.14;34.03
23176;BME280;19910;42.652;23.332;2022-07-25T11:46:00;94473.84;;;31.29;32.42
23176;BME280;19910;42.652;23.332;2022-07-25T11:48:36;94476.41;;;30.47;34.25
23176;BME280;19910;42.652;23.332;2022-07-25T11:51:11;94478.31;;;29.97;35.62
23176;BME280;19910;42.652;23.332;2022-07-25T11:53:42;94481.75;;;29.79;34.84
23176;BME280;19910;42.652;23.332;2022-07-25T11:56:14;94470.25;;;29.77;33.72
23176;BME280;19910;42.652;23.332;2022-07-25T11:58:41;94465.50;;;30.49;32.57
23176;BME280;19910;42.652;23.332;2022-07-25T12:01:14;94468.84;;;31.33;32.74
23176;BME280;19910;42.652;23.332;2022-07-25T12:03:41;94463.72;;;31.59;31.52
23176;BME280;19910;42.652;23.332;2022-07-25T12:06:10;94462.03;;;31.25;31.63
23176;BME280;19910;42.652;23.332;2022-07-25T12:08:39;94474.72;;;30.18;34.59
23176;BME280;19910;42.652;23.332;2022-07-25T12:11:17;94465.50;;;30.49;34.83
23176;BME280;19910;42.652;23.332;2022-07-25T12:13:44;94454.38;;;31.34;32.38
23176;BME280;19910;42.652;23.332;2022-07-25T12:16:13;94448.47;;;31.78;31.55
23176;BME280;19910;42.652;23.332;2022-07-25T12:18:40;94446.94;;;31.50;31.79
23176;BME280;19910;42.652;23.332;2022-07-25T12:21:07;94449.28;;;31.42;32.72
23176;BME280;19910;42.652;23.332;2022-07-25T12:23:34;94446.47;;;31.15;33.55
23176;BME280;19910;42.652;23.332;2022-07-25T12:26:02;94453.16;;;30.59;34.68
23176;BME280;19910;42.652;23.332;2022-07-25T12:28:29;94442.06;;;30.06;34.18
23176;BME280;19910;42.652;23.332;2022-07-25T12:30:56;94437.63;;;30.58;34.69
23176;BME280;19910;42.652;23.332;2022-07-25T12:33:24;94440.25;;;31.29;34.82
23176;BME280;19910;42.652;23.332;2022-07-25T12:35:51;94440.78;;;30.78;34.65
23176;BME280;19910;42.652;23.332;2022-07-25T12:38:18;94438.75;;;30.29;35.13
23176;BME280;19910;42.652;23.332;2022-07-25T12:40:45;94429.72;;;30.34;35.57
23176;BME280;19910;42.652;23.332;2022-07-25T12:43:12;94433.34;;;30.84;35.49
23176;BME280;19910;42.652;23.332;2022-07-25T12:45:39;94428.72;;;31.36;34.08
23176;BME280;19910;42.652;23.332;2022-07-25T12:48:07;94431.44;;;30.72;34.17
23176;BME280;19910;42.652;23.332;2022-07-25T12:50:40;94426.69;;;30.51;34.77
23176;BME280;19910;42.652;23.332;2022-07-25T12:53:06;94419.53;;;31.08;33.44
23176;BME280;19910;42.652;23.332;2022-07-25T12:55:34;94416.44;;;31.42;31.88